sensor_id;sensor_type;location;lat;lon;timestamp;pressure;altitude;pressure_sealevel;temperature;humidity
68197;BME280;55019;49.382;11.358;2023-01-30T00:00:35;97057.88;;;-4.13;96.88
68197;BME280;55019;49.382;11.358;2023-01-30T00:03:00;97059.72;;;-4.16;97.06
68197;BME280;55019;49.382;11.358;2023-01-30T00:05:26;97056.69;;;-4.24;97.19
68197;BME280;55019;49.382;11.358;2023-01-30T00:07:51;97049.88;;;-4.22;97.21
68197;BME280;55019;49.382;11.358;2023-01-30T00:10:18;97048.25;;;-4.23;97.29
68197;BME280;55019;49.382;11.358;2023-01-30T00:12:44;97037.66;;;-4.31;96.84
68197;BME280;55019;49.382;11.358;2023-01-30T00:15:09;97042.44;;;-4.25;97.24
68197;BME280;55019;49.382;11.358;2023-01-30T00:17:35;97038.53;;;-4.32;97.52
68197;BME280;55019;49.382;11.358;2023-01-30T00:20:00;97035.16;;;-4.32;97.53
68197;BME280;55019;49.382;11.358;2023-01-30T00:22:26;97028.78;;;-4.41;97.65
68197;BME280;55019;49.382;11.358;2023-01-30T00:24:51;97027.84;;;-4.38;97.68
68197;BME280;55019;49.382;11.358;2023-01-30T00:27:17;97012.84;;;-4.41;97.25
68197;BME280;55019;49.382;11.358;2023-01-30T00:29:42;97010.34;;;-4.41;97.81
68197;BME280;55019;49.382;11.358;2023-01-30T00:32:08;97009.56;;;-4.43;97.59
68197;BME280;55019;49.382;11.358;2023-01-30T00:34:33;96991.47;;;-4.53;97.62
68197;BME280;55019;49.382;11.358;2023-01-30T00:36:59;97002.94;;;-4.46;97.78
68197;BME280;55019;49.382;11.358;2023-01-30T00:39:25;96987.69;;;-4.63;97.87
68197;BME280;55019;49.382;11.358;2023-01-30T00:41:50;96993.88;;;-4.50;97.61
68197;BME280;55019;49.382;11.358;2023-01-30T00:44:34;96987.75;;;-4.44;97.27
68197;BME280;55019;49.382;11.358;2023-01-30T00:47:18;96995.75;;;-4.35;96.66
68197;BME280;55019;49.382;11.358;2023-01-30T00:49:44;96997.13;;;-4.48;97.35
68197;BME280;55019;49.382;11.358;2023-01-30T00:52:09;97003.81;;;-4.47;97.59
68197;BME280;55019;49.382;11.358;2023-01-30T00:54:35;97003.69;;;-4.44;97.97
68197;BME280;55019;49.382;11.358;2023-01-30T00:57:00;97025.38;;;-4.40;98.14
68197;BME280;55019;49.382;11.358;2023-01-30T00:59:26;97018.22;;;-4.29;98.14
68197;BME280;55019;49.382;11.358;2023-01-30T01:01:52;97042.72;;;-4.13;97.49
68197;BME280;55019;49.382;11.358;2023-01-30T01:04:18;97038.25;;;-4.06;97.11
68197;BME280;55019;49.382;11.358;2023-01-30T01:06:43;97037.94;;;-3.99;96.44
68197;BME280;55019;49.382;11.358;2023-01-30T01:09:08;97045.56;;;-4.00;96.57
68197;BME280;55019;49.382;11.358;2023-01-30T01:11:34;97061.28;;;-3.94;97.03
68197;BME280;55019;49.382;11.358;2023-01-30T01:14:01;97059.50;;;-3.92;97.03
68197;BME280;55019;49.382;11.358;2023-01-30T01:16:28;97056.16;;;-3.92;97.21
68197;BME280;55019;49.382;11.358;2023-01-30T01:18:54;97051.94;;;-3.92;97.29
68197;BME280;55019;49.382;11.358;2023-01-30T01:21:20;97061.69;;;-3.84;96.84
68197;BME280;55019;49.382;11.358;2023-01-30T01:23:55;97056.09;;;-3.91;96.95
68197;BME280;55019;49.382;11.358;2023-01-30T01:26:20;97052.13;;;-3.96;97.70
68197;BME280;55019;49.382;11.358;2023-01-30T01:28:46;97032.31;;;-4.05;97.81
68197;BME280;55019;49.382;11.358;2023-01-30T01:31:12;97024.69;;;-4.04;98.06
68197;BME280;55019;49.382;11.358;2023-01-30T01:33:38;97015.41;;;-4.03;98.20
68197;BME280;55019;49.382;11.358;2023-01-30T01:36:04;97038.31;;;-3.88;97.99
68197;BME280;55019;49.382;11.358;2023-01-30T01:38:30;97023.16;;;-3.88;97.48
68197;BME280;55019;49.382;11.358;2023-01-30T01:40:56;97033.69;;;-3.98;98.13
68197;BME280;55019;49.382;11.358;2023-01-30T01:46:24;97022.09;;;-4.02;98.22
68197;BME280;55019;49.382;11.358;2023-01-30T01:48:55;97016.91;;;-3.99;98.20
68197;BME280;55019;49.382;11.358;2023-01-30T01:51:28;97020.28;;;-3.99;98.50
68197;BME280;55019;49.382;11.358;2023-01-30T01:54:33;97013.25;;;-3.92;98.43
68197;BME280;55019;49.382;11.358;2023-01-30T01:57:01;97016.78;;;-3.96;98.05
68197;BME280;55019;49.382;11.358;2023-01-30T01:59:49;97000.13;;;-4.00;98.03
68197;BME280;55019;49.382;11.358;2023-01-30T02:12:34;96988.75;;;-3.90;98.40
68197;BME280;55019;49.382;11.358;2023-01-30T02:14:59;96970.34;;;-3.92;98.56
68197;BME280;55019;49.382;11.358;2023-01-30T02:17:25;96966.03;;;-3.90;98.39
68197;BME280;55019;49.382;11.358;2023-01-30T02:20:00;96953.38;;;-3.89;98.90
68197;BME280;55019;49.382;11.358;2023-01-30T02:22:40;96948.09;;;-3.84;98.45
68197;BME280;55019;49.382;11.358;2023-01-30T02:31:19;96935.09;;;-3.75;98.91
68197;BME280;55019;49.382;11.358;2023-01-30T02:37:08;96921.00;;;-3.62;99.52
68197;BME280;55019;49.382;11.358;2023-01-30T02:42:18;96907.63;;;-3.64;100.00
68197;BME280;55019;49.382;11.358;2023-01-30T02:47:40;96887.50;;;-3.66;100.00
68197;BME280;55019;49.382;11.358;2023-01-30T02:50:11;96861.28;;;-3.63;100.00
68197;BME280;55019;49.382;11.358;2023-01-30T02:52:39;96862.03;;;-3.61;100.00
68197;BME280;55019;49.382;11.358;2023-01-30T02:55:16;96863.69;;;-3.60;100.00
68197;BME280;55019;49.382;11.358;2023-01-30T02:57:42;96873.50;;;-3.54;100.00
68197;BME280;55019;49.382;11.358;2023-01-30T03:00:08;96871.56;;;-3.49;100.00
68197;BME280;55019;49.382;11.358;2023-01-30T03:02:55;96884.50;;;-3.38;99.98
68197;BME280;55019;49.382;11.358;2023-01-30T03:05:58;96882.13;;;-3.41;99.42
68197;BME280;55019;49.382;11.358;2023-01-30T03:11:21;96887.50;;;-3.30;99.12
68197;BME280;55019;49.382;11.358;2023-01-30T03:14:07;96875.78;;;-3.31;99.49
68197;BME280;55019;49.382;11.358;2023-01-30T03:16:39;96879.69;;;-3.26;98.73
68197;BME280;55019;49.382;11.358;2023-01-30T03:19:09;96863.75;;;-3.26;99.21
68197;BME280;55019;49.382;11.358;2023-01-30T03:21:43;96849.91;;;-3.19;98.67
68197;BME280;55019;49.382;11.358;2023-01-30T03:24:12;96844.72;;;-3.16;98.56
68197;BME280;55019;49.382;11.358;2023-01-30T03:27:00;96847.09;;;-3.13;98.21
68197;BME280;55019;49.382;11.358;2023-01-30T03:29:27;96848.78;;;-3.14;98.68
68197;BME280;55019;49.382;11.358;2023-01-30T03:31:52;96837.72;;;-3.11;98.13
68197;BME280;55019;49.382;11.358;2023-01-30T03:34:18;96819.13;;;-3.10;98.20
68197;BME280;55019;49.382;11.358;2023-01-30T03:36:43;96813.78;;;-3.04;97.71
68197;BME280;55019;49.382;11.358;2023-01-30T03:39:09;96800.81;;;-2.98;98.46
68197;BME280;55019;49.382;11.358;2023-01-30T03:41:34;96801.56;;;-2.96;97.45
68197;BME280;55019;49.382;11.358;2023-01-30T03:44:00;96799.56;;;-2.90;97.38
68197;BME280;55019;49.382;11.358;2023-01-30T03:46:25;96783.06;;;-2.97;97.79
68197;BME280;55019;49.382;11.358;2023-01-30T03:48:50;96787.88;;;-2.92;97.84
68197;BME280;55019;49.382;11.358;2023-01-30T03:51:16;96804.53;;;-2.88;97.33
68197;BME280;55019;49.382;11.358;2023-01-30T03:53:41;96786.09;;;-2.90;97.98
68197;BME280;55019;49.382;11.358;2023-01-30T03:56:07;96781.56;;;-2.84;97.00
68197;BME280;55019;49.382;11.358;2023-01-30T03:58:32;96788.09;;;-2.80;97.16
68197;BME280;55019;49.382;11.358;2023-01-30T04:00:57;96777.75;;;-2.76;96.97
68197;BME280;55019;49.382;11.358;2023-01-30T04:03:23;96772.91;;;-2.80;96.91
68197;BME280;55019;49.382;11.358;2023-01-30T04:05:48;96760.22;;;-2.79;96.82
68197;BME280;55019;49.382;11.358;2023-01-30T04:08:14;96760.03;;;-2.76;97.09
68197;BME280;55019;49.382;11.358;2023-01-30T04:10:39;96762.16;;;-2.68;96.28
68197;BME280;55019;49.382;11.358;2023-01-30T04:13:04;96758.91;;;-2.70;96.61
68197;BME280;55019;49.382;11.358;2023-01-30T04:15:30;96763.78;;;-2.67;96.57
68197;BME280;55019;49.382;11.358;2023-01-30T04:17:56;96775.63;;;-2.68;96.21
68197;BME280;55019;49.382;11.358;2023-01-30T04:20:21;96759.25;;;-2.61;95.92
68197;BME280;55019;49.382;11.358;2023-01-30T04:22:46;96768.63;;;-2.63;95.96
68197;BME280;55019;49.382;11.358;2023-01-30T04:25:12;96775.16;;;-2.59;95.63
68197;BME280;55019;49.382;11.358;2023-01-30T04:27:37;96776.06;;;-2.60;96.08
68197;BME280;55019;49.382;11.358;2023-01-30T04:30:03;96778.44;;;-2.57;95.58
68197;BME280;55019;49.382;11.358;2023-01-30T04:32:29;96778.78;;;-2.47;95.79
68197;BME280;55019;49.382;11.358;2023-01-30T04:34:54;96772.00;;;-2.47;95.98
68197;BME280;55019;49.382;11.358;2023-01-30T04:37:20;96785.38;;;-2.45;95.92
68197;BME280;55019;49.382;11.358;2023-01-30T04:39:46;96770.94;;;-2.43;95.60
68197;BME280;55019;49.382;11.358;2023-01-30T04:42:11;96786.84;;;-2.41;95.09
68197;BME280;55019;49.382;11.358;2023-01-30T04:44:37;96773.13;;;-2.37;94.95
68197;BME280;55019;49.382;11.358;2023-01-30T04:47:02;96790.28;;;-2.42;94.93
68197;BME280;55019;49.382;11.358;2023-01-30T04:49:27;96775.97;;;-2.43;94.66
68197;BME280;55019;49.382;11.358;2023-01-30T04:51:53;96771.66;;;-2.41;95.13
68197;BME280;55019;49.382;11.358;2023-01-30T04:54:18;96770.03;;;-2.42;94.63
68197;BME280;55019;49.382;11.358;2023-01-30T04:56:43;96772.66;;;-2.43;94.84
68197;BME280;55019;49.382;11.358;2023-01-30T04:59:09;96778.03;;;-2.34;94.69
68197;BME280;55019;49.382;11.358;2023-01-30T05:01:36;96775.50;;;-2.34;94.66
68197;BME280;55019;49.382;11.358;2023-01-30T05:04:02;96773.13;;;-2.37;94.96
68197;BME280;55019;49.382;11.358;2023-01-30T05:06:29;96775.50;;;-2.34;94.76
68197;BME280;55019;49.382;11.358;2023-01-30T05:08:56;96783.81;;;-2.32;95.06
68197;BME280;55019;49.382;11.358;2023-01-30T05:11:23;96772.81;;;-2.31;94.70
68197;BME280;55019;49.382;11.358;2023-01-30T05:13:49;96788.00;;;-2.31;95.30
68197;BME280;55019;49.382;11.358;2023-01-30T05:16:15;96779.66;;;-2.33;95.23
68197;BME280;55019;49.382;11.358;2023-01-30T05:18:41;96780.66;;;-2.35;95.81
68197;BME280;55019;49.382;11.358;2023-01-30T05:21:13;96775.09;;;-2.42;96.31
68197;BME280;55019;49.382;11.358;2023-01-30T05:23:39;96767.34;;;-2.39;96.35
68197;BME280;55019;49.382;11.358;2023-01-30T05:26:04;96748.00;;;-2.40;97.03
68197;BME280;55019;49.382;11.358;2023-01-30T05:28:30;96744.56;;;-2.39;96.98
68197;BME280;55019;49.382;11.358;2023-01-30T05:31:04;96737.25;;;-2.43;97.47
68197;BME280;55019;49.382;11.358;2023-01-30T05:33:30;96745.88;;;-2.47;98.61
68197;BME280;55019;49.382;11.358;2023-01-30T05:35:55;96740.00;;;-2.48;98.65
68197;BME280;55019;49.382;11.358;2023-01-30T05:38:22;96732.00;;;-2.56;99.49
68197;BME280;55019;49.382;11.358;2023-01-30T05:41:06;96737.56;;;-2.49;99.55
68197;BME280;55019;49.382;11.358;2023-01-30T05:43:32;96732.84;;;-2.55;99.78
68197;BME280;55019;49.382;11.358;2023-01-30T05:46:00;96741.78;;;-2.50;100.00
68197;BME280;55019;49.382;11.358;2023-01-30T05:48:26;96744.09;;;-2.45;100.00
68197;BME280;55019;49.382;11.358;2023-01-30T05:50:54;96741.78;;;-2.50;100.00
68197;BME280;55019;49.382;11.358;2023-01-30T05:53:21;96748.88;;;-2.41;100.00
68197;BME280;55019;49.382;11.358;2023-01-30T05:55:58;96745.06;;;-2.48;100.00
68197;BME280;55019;49.382;11.358;2023-01-30T05:58:23;96729.97;;;-2.49;100.00
68197;BME280;55019;49.382;11.358;2023-01-30T06:00:49;96736.84;;;-2.51;100.00
68197;BME280;55019;49.382;11.358;2023-01-30T06:03:15;96733.47;;;-2.52;100.00
68197;BME280;55019;49.382;11.358;2023-01-30T06:05:40;96727.59;;;-2.52;100.00
68197;BME280;55019;49.382;11.358;2023-01-30T06:08:06;96730.03;;;-2.51;100.00
68197;BME280;55019;49.382;11.358;2023-01-30T06:10:33;96728.41;;;-2.52;100.00
68197;BME280;55019;49.382;11.358;2023-01-30T06:12:58;96720.81;;;-2.52;100.00
68197;BME280;55019;49.382;11.358;2023-01-30T06:15:23;96720.66;;;-2.49;100.00
68197;BME280;55019;49.382;11.358;2023-01-30T06:17:49;96723.34;;;-2.52;100.00
68197;BME280;55019;49.382;11.358;2023-01-30T06:20:14;96720.66;;;-2.49;100.00
68197;BME280;55019;49.382;11.358;2023-01-30T06:22:40;96729.41;;;-2.54;100.00
68197;BME280;55019;49.382;11.358;2023-01-30T06:25:05;96730.03;;;-2.51;100.00
68197;BME280;55019;49.382;11.358;2023-01-30T06:27:31;96729.47;;;-2.56;100.00
68197;BME280;55019;49.382;11.358;2023-01-30T06:29:56;96723.69;;;-2.58;100.00
68197;BME280;55019;49.382;11.358;2023-01-30T06:32:21;96723.75;;;-2.59;100.00
68197;BME280;55019;49.382;11.358;2023-01-30T06:34:47;96730.38;;;-2.57;100.00
68197;BME280;55019;49.382;11.358;2023-01-30T06:37:12;96728.25;;;-2.49;100.00
68197;BME280;55019;49.382;11.358;2023-01-30T06:39:37;96717.56;;;-2.54;100.00
68197;BME280;55019;49.382;11.358;2023-01-30T06:42:03;96716.75;;;-2.54;100.00
68197;BME280;55019;49.382;11.358;2023-01-30T06:44:28;96719.75;;;-2.48;100.00
68197;BME280;55019;49.382;11.358;2023-01-30T06:46:54;96715.53;;;-2.47;100.00
68197;BME280;55019;49.382;11.358;2023-01-30T06:49:19;96718.63;;;-2.42;100.00
68197;BME280;55019;49.382;11.358;2023-01-30T06:51:45;96720.25;;;-2.41;100.00
68197;BME280;55019;49.382;11.358;2023-01-30T06:54:10;96720.09;;;-2.38;100.00
68197;BME280;55019;49.382;11.358;2023-01-30T06:56:35;96722.34;;;-2.34;100.00
68197;BME280;55019;49.382;11.358;2023-01-30T06:59:01;96727.41;;;-2.34;100.00
68197;BME280;55019;49.382;11.358;2023-01-30T07:01:26;96722.28;;;-2.32;100.00
68197;BME280;55019;49.382;11.358;2023-01-30T07:03:52;96722.97;;;-2.29;100.00
68197;BME280;55019;49.382;11.358;2023-01-30T07:06:17;96712.56;;;-2.24;100.00
68197;BME280;55019;49.382;11.358;2023-01-30T07:08:42;96723.53;;;-2.24;100.00
68197;BME280;55019;49.382;11.358;2023-01-30T07:11:09;96717.41;;;-2.20;99.70
68197;BME280;55019;49.382;11.358;2023-01-30T07:13:34;96715.75;;;-2.21;99.79
68197;BME280;55019;49.382;11.358;2023-01-30T07:16:00;96712.72;;;-2.12;99.79
68197;BME280;55019;49.382;11.358;2023-01-30T07:18:25;96716.16;;;-2.13;99.15
68197;BME280;55019;49.382;11.358;2023-01-30T07:20:51;96717.28;;;-2.03;98.96
68197;BME280;55019;49.382;11.358;2023-01-30T07:23:16;96708.41;;;-2.10;99.21
68197;BME280;55019;49.382;11.358;2023-01-30T07:25:42;96707.66;;;-2.12;98.75
68197;BME280;55019;49.382;11.358;2023-01-30T07:28:08;96704.06;;;-2.08;98.75
68197;BME280;55019;49.382;11.358;2023-01-30T07:30:34;96707.16;;;-2.03;99.22
68197;BME280;55019;49.382;11.358;2023-01-30T07:33:01;96704.69;;;-2.04;98.25
68197;BME280;55019;49.382;11.358;2023-01-30T07:35:31;96701.03;;;-1.99;98.12
68197;BME280;55019;49.382;11.358;2023-01-30T07:37:57;96693.59;;;-2.02;98.28
68197;BME280;55019;49.382;11.358;2023-01-30T07:40:23;96691.63;;;-1.97;97.91
68197;BME280;55019;49.382;11.358;2023-01-30T07:43:00;96690.66;;;-1.94;97.79
68197;BME280;55019;49.382;11.358;2023-01-30T07:45:29;96678.78;;;-1.94;97.47
68197;BME280;55019;49.382;11.358;2023-01-30T07:47:55;96678.00;;;-1.94;97.67
68197;BME280;55019;49.382;11.358;2023-01-30T07:50:21;96683.34;;;-1.85;97.76
68197;BME280;55019;49.382;11.358;2023-01-30T07:52:46;96678.44;;;-1.88;97.48
68197;BME280;55019;49.382;11.358;2023-01-30T07:55:11;96683.34;;;-1.85;97.58
68197;BME280;55019;49.382;11.358;2023-01-30T07:57:37;96667.72;;;-1.77;97.05
68197;BME280;55019;49.382;11.358;2023-01-30T08:00:03;96663.94;;;-1.70;97.58
68197;BME280;55019;49.382;11.358;2023-01-30T08:02:29;96664.59;;;-1.67;97.05
68197;BME280;55019;49.382;11.358;2023-01-30T08:04:54;96658.34;;;-1.61;96.58
68197;BME280;55019;49.382;11.358;2023-01-30T08:07:19;96639.25;;;-1.67;96.49
68197;BME280;55019;49.382;11.358;2023-01-30T08:09:46;96638.00;;;-1.60;96.43
68197;BME280;55019;49.382;11.358;2023-01-30T08:12:11;96619.91;;;-1.54;96.03
68197;BME280;55019;49.382;11.358;2023-01-30T08:14:37;96613.84;;;-1.38;95.11
68197;BME280;55019;49.382;11.358;2023-01-30T08:17:02;96622.63;;;-1.15;95.34
68197;BME280;55019;49.382;11.358;2023-01-30T08:19:27;96619.75;;;-1.23;94.40
68197;BME280;55019;49.382;11.358;2023-01-30T08:21:53;96611.31;;;-1.24;94.86
68197;BME280;55019;49.382;11.358;2023-01-30T08:24:18;96616.31;;;-1.22;95.54
68197;BME280;55019;49.382;11.358;2023-01-30T08:26:46;96623.81;;;-1.21;95.20
68197;BME280;55019;49.382;11.358;2023-01-30T08:29:12;96623.38;;;-1.27;95.58
68197;BME280;55019;49.382;11.358;2023-01-30T08:31:37;96623.06;;;-1.23;95.24
68197;BME280;55019;49.382;11.358;2023-01-30T08:34:03;96635.69;;;-1.21;95.74
68197;BME280;55019;49.382;11.358;2023-01-30T08:36:28;96619.94;;;-1.26;95.59
68197;BME280;55019;49.382;11.358;2023-01-30T08:38:53;96631.69;;;-1.25;95.58
68197;BME280;55019;49.382;11.358;2023-01-30T08:41:19;96631.50;;;-1.22;95.41
68197;BME280;55019;49.382;11.358;2023-01-30T08:43:44;96616.38;;;-1.24;94.81
68197;BME280;55019;49.382;11.358;2023-01-30T08:46:09;96623.19;;;-1.24;95.80
68197;BME280;55019;49.382;11.358;2023-01-30T08:48:35;96627.34;;;-1.23;95.54
68197;BME280;55019;49.382;11.358;2023-01-30T08:51:03;96616.31;;;-1.22;94.91
68197;BME280;55019;49.382;11.358;2023-01-30T08:53:28;96606.97;;;-1.22;94.95
68197;BME280;55019;49.382;11.358;2023-01-30T08:55:54;96607.06;;;-1.23;94.71
68197;BME280;55019;49.382;11.358;2023-01-30T08:58:20;96609.50;;;-1.22;95.15
68197;BME280;55019;49.382;11.358;2023-01-30T09:00:46;96598.19;;;-1.16;94.81
68197;BME280;55019;49.382;11.358;2023-01-30T09:03:13;96588.06;;;-1.16;94.59
68197;BME280;55019;49.382;11.358;2023-01-30T09:05:38;96599.28;;;-1.20;95.78
68197;BME280;55019;49.382;11.358;2023-01-30T09:08:04;96603.34;;;-1.18;96.16
68197;BME280;55019;49.382;11.358;2023-01-30T09:10:30;96597.00;;;-1.25;96.49
68197;BME280;55019;49.382;11.358;2023-01-30T09:12:55;96597.84;;;-1.24;97.21
68197;BME280;55019;49.382;11.358;2023-01-30T09:15:21;96616.31;;;-1.22;97.67
68197;BME280;55019;49.382;11.358;2023-01-30T09:17:46;96596.53;;;-1.31;98.13
68197;BME280;55019;49.382;11.358;2023-01-30T09:20:12;96602.44;;;-1.31;99.00
68197;BME280;55019;49.382;11.358;2023-01-30T09:22:37;96602.44;;;-1.31;99.88
68197;BME280;55019;49.382;11.358;2023-01-30T09:25:04;96599.19;;;-1.33;100.00
68197;BME280;55019;49.382;11.358;2023-01-30T09:27:30;96593.66;;;-1.39;100.00
68197;BME280;55019;49.382;11.358;2023-01-30T09:29:55;96597.13;;;-1.26;100.00
68197;BME280;55019;49.382;11.358;2023-01-30T09:32:21;96588.41;;;-1.36;100.00
68197;BME280;55019;49.382;11.358;2023-01-30T09:34:46;96605.06;;;-1.32;100.00
68197;BME280;55019;49.382;11.358;2023-01-30T09:37:11;96602.72;;;-1.35;100.00
68197;BME280;55019;49.382;11.358;2023-01-30T09:39:37;96588.16;;;-1.32;100.00
68197;BME280;55019;49.382;11.358;2023-01-30T09:45:36;96584.59;;;-1.29;100.00
68197;BME280;55019;49.382;11.358;2023-01-30T09:48:29;96584.25;;;-1.37;100.00
68197;BME280;55019;49.382;11.358;2023-01-30T09:51:09;96592.50;;;-1.34;100.00
68197;BME280;55019;49.382;11.358;2023-01-30T09:56:23;96569.75;;;-1.35;100.00
68197;BME280;55019;49.382;11.358;2023-01-30T09:58:57;96575.66;;;-1.35;100.00
68197;BME280;55019;49.382;11.358;2023-01-30T10:01:29;96594.66;;;-1.28;100.00
68197;BME280;55019;49.382;11.358;2023-01-30T10:04:17;96573.84;;;-1.33;100.00
68197;BME280;55019;49.382;11.358;2023-01-30T10:06:56;96575.94;;;-1.25;100.00
68197;BME280;55019;49.382;11.358;2023-01-30T10:09:49;96572.38;;;-1.23;100.00
68197;BME280;55019;49.382;11.358;2023-01-30T10:17:56;96561.25;;;-1.20;100.00
68197;BME280;55019;49.382;11.358;2023-01-30T10:20:28;96558.16;;;-1.11;100.00
68197;BME280;55019;49.382;11.358;2023-01-30T10:22:59;96557.84;;;-1.07;100.00
68197;BME280;55019;49.382;11.358;2023-01-30T10:25:33;96547.44;;;-1.02;100.00
68197;BME280;55019;49.382;11.358;2023-01-30T10:28:25;96555.91;;;-0.89;100.00
68197;BME280;55019;49.382;11.358;2023-01-30T10:31:23;96551.94;;;-0.93;100.00
68197;BME280;55019;49.382;11.358;2023-01-30T10:36:53;96553.00;;;-0.83;100.00
68197;BME280;55019;49.382;11.358;2023-01-30T10:39:44;96549.75;;;-0.85;100.00
68197;BME280;55019;49.382;11.358;2023-01-30T10:42:18;96553.00;;;-0.83;100.00
68197;BME280;55019;49.382;11.358;2023-01-30T10:44:48;96542.47;;;-0.77;100.00
68197;BME280;55019;49.382;11.358;2023-01-30T10:47:49;96540.69;;;-0.75;100.00
68197;BME280;55019;49.382;11.358;2023-01-30T10:50:18;96542.13;;;-0.71;100.00
68197;BME280;55019;49.382;11.358;2023-01-30T10:53:11;96542.34;;;-0.62;100.00
68197;BME280;55019;49.382;11.358;2023-01-30T10:55:46;96551.69;;;-0.62;100.00
68197;BME280;55019;49.382;11.358;2023-01-30T10:58:18;96550.78;;;-0.61;100.00
68197;BME280;55019;49.382;11.358;2023-01-30T11:01:06;96553.31;;;-0.61;100.00
68197;BME280;55019;49.382;11.358;2023-01-30T11:06:24;96553.38;;;-0.49;100.00
68197;BME280;55019;49.382;11.358;2023-01-30T11:08:51;96538.72;;;-0.45;100.00
68197;BME280;55019;49.382;11.358;2023-01-30T11:11:59;96534.88;;;-0.51;100.00
68197;BME280;55019;49.382;11.358;2023-01-30T11:14:17;96525.31;;;-0.47;100.00
68197;BME280;55019;49.382;11.358;2023-01-30T11:16:49;96531.84;;;-0.43;100.00
68197;BME280;55019;49.382;11.358;2023-01-30T11:19:19;96526.03;;;-0.45;100.00
68197;BME280;55019;49.382;11.358;2023-01-30T11:21:54;96530.63;;;-0.38;100.00
68197;BME280;55019;49.382;11.358;2023-01-30T11:24:29;96531.25;;;-0.34;100.00
68197;BME280;55019;49.382;11.358;2023-01-30T11:26:55;96526.16;;;-0.34;100.00
68197;BME280;55019;49.382;11.358;2023-01-30T11:29:33;96523.44;;;-0.31;100.00
68197;BME280;55019;49.382;11.358;2023-01-30T11:32:14;96517.44;;;-0.30;100.00
68197;BME280;55019;49.382;11.358;2023-01-30T11:35:01;96517.22;;;-0.27;100.00
68197;BME280;55019;49.382;11.358;2023-01-30T11:37:33;96527.22;;;-0.24;100.00
68197;BME280;55019;49.382;11.358;2023-01-30T11:39:58;96519.50;;;-0.23;100.00
68197;BME280;55019;49.382;11.358;2023-01-30T11:42:31;96521.13;;;-0.22;100.00
68197;BME280;55019;49.382;11.358;2023-01-30T11:44:58;96533.09;;;-0.24;100.00
68197;BME280;55019;49.382;11.358;2023-01-30T11:47:26;96515.53;;;-0.27;100.00
68197;BME280;55019;49.382;11.358;2023-01-30T11:49:55;96521.94;;;-0.21;100.00
68197;BME280;55019;49.382;11.358;2023-01-30T11:52:26;96517.78;;;-0.22;100.00
68197;BME280;55019;49.382;11.358;2023-01-30T11:54:57;96515.75;;;-0.17;100.00
68197;BME280;55019;49.382;11.358;2023-01-30T11:57:26;96498.91;;;-0.18;100.00
68197;BME280;55019;49.382;11.358;2023-01-30T11:59:56;96501.44;;;-0.18;100.00
68197;BME280;55019;49.382;11.358;2023-01-30T12:02:34;96500.31;;;-0.14;100.00
68197;BME280;55019;49.382;11.358;2023-01-30T12:07:52;96504.78;;;-0.18;100.00
68197;BME280;55019;49.382;11.358;2023-01-30T12:12:51;96504.38;;;-0.24;100.00
68197;BME280;55019;49.382;11.358;2023-01-30T12:23:17;96502.41;;;-0.33;100.00
68197;BME280;55019;49.382;11.358;2023-01-30T12:31:46;96499.81;;;-0.19;100.00
68197;BME280;55019;49.382;11.358;2023-01-30T12:34:14;96500.09;;;-0.24;100.00
68197;BME280;55019;49.382;11.358;2023-01-30T12:36:50;96495.25;;;-0.14;100.00
68197;BME280;55019;49.382;11.358;2023-01-30T12:43:07;96504.06;;;-0.07;100.00
68197;BME280;55019;49.382;11.358;2023-01-30T12:45:41;96503.88;;;-0.04;100.00
68197;BME280;55019;49.382;11.358;2023-01-30T12:53:54;96515.84;;;-0.06;100.00
68197;BME280;55019;49.382;11.358;2023-01-30T12:59:09;96515.75;;;0.07;100.00
68197;BME280;55019;49.382;11.358;2023-01-30T13:01:54;96503.88;;;0.08;100.00
68197;BME280;55019;49.382;11.358;2023-01-30T13:07:26;96516.06;;;0.15;100.00
68197;BME280;55019;49.382;11.358;2023-01-30T13:12:42;96507.94;;;0.23;100.00
68197;BME280;55019;49.382;11.358;2023-01-30T13:15:32;96512.72;;;0.27;100.00
68197;BME280;55019;49.382;11.358;2023-01-30T13:18:09;96510.34;;;0.24;100.00
68197;BME280;55019;49.382;11.358;2023-01-30T13:26:13;96513.94;;;0.34;100.00
68197;BME280;55019;49.382;11.358;2023-01-30T13:28:48;96509.56;;;0.36;100.00
68197;BME280;55019;49.382;11.358;2023-01-30T13:31:17;96497.72;;;0.48;100.00
68197;BME280;55019;49.382;11.358;2023-01-30T13:33:47;96512.59;;;0.54;100.00
68197;BME280;55019;49.382;11.358;2023-01-30T13:36:22;96504.63;;;0.58;100.00
68197;BME280;55019;49.382;11.358;2023-01-30T13:41:16;96513.38;;;0.54;100.00
68197;BME280;55019;49.382;11.358;2023-01-30T13:43:47;96510.75;;;0.56;100.00
68197;BME280;55019;49.382;11.358;2023-01-30T13:46:21;96498.13;;;0.54;99.44
68197;BME280;55019;49.382;11.358;2023-01-30T13:49:21;96498.97;;;0.55;99.89
68197;BME280;55019;49.382;11.358;2023-01-30T13:52:08;96512.75;;;0.63;99.91
68197;BME280;55019;49.382;11.358;2023-01-30T14:02:25;96500.97;;;0.62;99.62
68197;BME280;55019;49.382;11.358;2023-01-30T14:04:54;96498.63;;;0.59;99.24
68197;BME280;55019;49.382;11.358;2023-01-30T14:07:27;96501.38;;;0.56;99.60
68197;BME280;55019;49.382;11.358;2023-01-30T14:10:10;96490.09;;;0.60;99.40
68197;BME280;55019;49.382;11.358;2023-01-30T14:12:51;96504.63;;;0.58;99.46
68197;BME280;55019;49.382;11.358;2023-01-30T14:15:24;96509.31;;;0.64;98.94
68197;BME280;55019;49.382;11.358;2023-01-30T14:20:24;96498.69;;;0.83;97.62
68197;BME280;55019;49.382;11.358;2023-01-30T14:22:53;96502.97;;;0.82;96.87
68197;BME280;55019;49.382;11.358;2023-01-30T14:30:47;96523.63;;;0.65;97.76
68197;BME280;55019;49.382;11.358;2023-01-30T14:38:33;96538.97;;;0.76;97.47
68197;BME280;55019;49.382;11.358;2023-01-30T14:50:46;96559.84;;;0.81;96.33
68197;BME280;55019;49.382;11.358;2023-01-30T14:53:12;96561.16;;;0.74;96.45
68197;BME280;55019;49.382;11.358;2023-01-30T14:55:38;96561.16;;;0.74;96.62
68197;BME280;55019;49.382;11.358;2023-01-30T14:58:04;96571.16;;;0.65;97.04
68197;BME280;55019;49.382;11.358;2023-01-30T15:00:33;96575.00;;;0.70;96.65
68197;BME280;55019;49.382;11.358;2023-01-30T15:03:06;96570.09;;;0.67;96.99